Time;durP1;ratioP1;P1;durP2;ratioP2;P2;SDS_P1;SDS_P2;PMS_P1;PMS_P2;Temp;Humidity;BMP_temperature;BMP_pressure;BME280_temperature;BME280_humidity;BME280_pressure;Samples;Min_cycle;Max_cycle;Signal;HPM_P1;HPM_P2
2021/09/25 00:00:06;;;;;;;31.07;28.90;;;13.20;92.00;;;;;;5029874;28;20478;-71
2021/09/25 00:02:32;;;;;;;29.17;27.20;;;13.20;92.00;;;;;;5026894;28;20476;-72
2021/09/25 00:05:01;;;;;;;30.50;28.27;;;13.20;92.00;;;;;;5029468;28;20474;-71
2021/09/25 00:07:28;;;;;;;29.73;27.83;;;13.20;92.10;;;;;;5027619;28;20483;-71
2021/09/25 00:09:55;;;;;;;30.20;27.70;;;13.20;92.30;;;;;;5030382;28;20485;-71
2021/09/25 00:12:22;;;;;;;29.93;27.60;;;13.20;92.30;;;;;;5029823;28;20465;-71
2021/09/25 00:14:49;;;;;;;30.80;28.73;;;13.20;92.60;;;;;;5028755;28;20465;-71
2021/09/25 00:17:16;;;;;;;31.60;29.33;;;13.20;92.50;;;;;;5026719;28;20810;-71
2021/09/25 00:19:43;;;;;;;31.10;28.90;;;13.10;92.60;;;;;;5028969;28;20475;-72
2021/09/25 00:22:12;;;;;;;29.80;27.80;;;13.10;92.70;;;;;;5025939;28;20466;-71
2021/09/25 00:24:39;;;;;;;29.57;27.57;;;13.10;92.70;;;;;;5018620;28;20484;-72
2021/09/25 00:27:06;;;;;;;29.57;27.63;;;13.10;92.80;;;;;;5031402;28;20457;-73
2021/09/25 00:29:33;;;;;;;29.63;27.63;;;13.10;92.70;;;;;;5032501;28;20480;-72
2021/09/25 00:32:00;;;;;;;29.37;27.27;;;13.10;92.70;;;;;;5032308;28;20458;-72
2021/09/25 00:34:27;;;;;;;29.57;27.57;;;13.10;92.80;;;;;;5022383;28;20935;-72
2021/09/25 00:36:54;;;;;;;29.23;27.43;;;13.10;93.00;;;;;;5032192;28;20455;-72
2021/09/25 00:39:22;;;;;;;29.03;27.03;;;13.00;93.00;;;;;;5031103;28;20470;-72
2021/09/25 00:41:49;;;;;;;29.20;27.30;;;13.10;93.00;;;;;;5032436;28;20553;-73
2021/09/25 00:44:16;;;;;;;30.30;28.10;;;13.10;92.80;;;;;;5019359;28;20463;-72
2021/09/25 00:46:43;;;;;;;30.40;28.23;;;13.10;92.70;;;;;;5032958;28;20885;-72
2021/09/25 00:49:10;;;;;;;30.60;28.73;;;13.00;92.70;;;;;;5029892;28;20469;-73
2021/09/25 00:51:37;;;;;;;30.10;27.93;;;13.00;92.80;;;;;;5032508;28;20456;-73
2021/09/25 00:54:03;;;;;;;30.27;28.07;;;13.00;92.50;;;;;;5031276;28;20462;-72
2021/09/25 00:56:32;;;;;;;29.30;26.67;;;13.10;92.40;;;;;;5032292;28;20450;-72
2021/09/25 00:58:59;;;;;;;29.03;26.90;;;13.20;91.90;;;;;;5031274;28;20464;-72
2021/09/25 01:01:26;;;;;;;27.63;25.73;;;13.20;91.40;;;;;;5031365;28;20475;-71
2021/09/25 01:03:52;;;;;;;28.90;26.87;;;13.20;91.30;;;;;;5030901;28;20478;-71
2021/09/25 01:06:19;;;;;;;28.70;26.60;;;13.20;91.10;;;;;;5031799;28;20498;-72
2021/09/25 01:08:46;;;;;;;28.27;26.37;;;13.20;91.10;;;;;;5031097;28;20462;-71
2021/09/25 01:11:14;;;;;;;27.73;25.83;;;13.20;91.00;;;;;;5031926;28;20990;-72
2021/09/25 01:13:42;;;;;;;27.77;25.70;;;13.30;90.80;;;;;;5031094;28;20461;-72
2021/09/25 01:16:09;;;;;;;28.47;26.57;;;13.30;90.70;;;;;;5032090;28;20454;-72
2021/09/25 01:18:36;;;;;;;28.43;26.53;;;13.30;90.40;;;;;;5019939;28;20466;-73
2021/09/25 01:21:06;;;;;;;28.13;26.13;;;13.20;90.40;;;;;;5029486;28;20485;-72
2021/09/25 01:23:34;;;;;;;29.17;27.27;;;13.20;90.70;;;;;;5030584;28;20546;-72
2021/09/25 01:26:01;;;;;;;28.83;26.83;;;13.20;90.60;;;;;;5031284;28;20477;-72
2021/09/25 01:28:28;;;;;;;27.23;25.47;;;13.10;90.60;;;;;;5030893;28;20817;-72
2021/09/25 01:30:55;;;;;;;29.17;27.20;;;13.20;90.40;;;;;;5031997;28;21123;-72
2021/09/25 01:33:25;;;;;;;28.70;26.70;;;13.10;90.70;;;;;;5030651;28;21011;-73
2021/09/25 01:35:53;;;;;;;27.97;26.17;;;13.10;90.80;;;;;;5031113;28;20453;-72
2021/09/25 01:38:21;;;;;;;27.83;26.03;;;13.00;91.00;;;;;;5029907;28;20456;-71
2021/09/25 01:40:48;;;;;;;28.07;26.17;;;13.00;90.80;;;;;;5031726;28;20990;-71
2021/09/25 01:43:16;;;;;;;27.83;25.93;;;13.00;90.90;;;;;;5029533;28;20468;-71
2021/09/25 01:45:43;;;;;;;28.83;26.70;;;13.00;90.90;;;;;;5027247;28;20475;-71
2021/09/25 01:48:11;;;;;;;27.63;25.73;;;13.00;91.00;;;;;;5029652;28;20563;-71
2021/09/25 01:50:38;;;;;;;27.00;25.00;;;13.00;90.90;;;;;;5024775;28;20485;-71
2021/09/25 01:53:05;;;;;;;28.27;26.27;;;13.00;91.00;;;;;;5022628;28;20458;-71
2021/09/25 01:55:34;;;;;;;27.70;25.90;;;13.00;91.10;;;;;;5026681;28;20448;-71
2021/09/25 01:58:01;;;;;;;26.67;24.93;;;13.10;90.90;;;;;;5029686;28;20487;-71
2021/09/25 02:00:28;;;;;;;28.00;26.20;;;13.00;90.90;;;;;;5030306;28;20480;-71
2021/09/25 02:02:55;;;;;;;28.97;26.87;;;13.00;91.00;;;;;;5029133;28;20484;-71
2021/09/25 02:05:22;;;;;;;27.90;26.00;;;12.90;91.00;;;;;;5030415;28;20985;-71
2021/09/25 02:07:49;;;;;;;27.40;25.40;;;12.90;90.90;;;;;;5024877;28;20469;-71
2021/09/25 02:10:17;;;;;;;28.60;26.50;;;12.90;90.70;;;;;;5024705;28;20562;-71
2021/09/25 02:12:46;;;;;;;26.93;25.17;;;12.80;90.60;;;;;;5024746;28;20462;-71
2021/09/25 02:15:14;;;;;;;27.37;25.57;;;12.80;90.40;;;;;;5026310;28;20578;-71
2021/09/25 02:17:41;;;;;;;27.67;25.73;;;12.70;90.80;;;;;;5029604;28;20465;-71
2021/09/25 02:20:10;;;;;;;26.83;25.13;;;12.70;91.00;;;;;;5030738;28;20486;-71
2021/09/25 02:22:37;;;;;;;27.03;25.20;;;12.70;91.00;;;;;;5022961;28;20461;-71
2021/09/25 02:25:05;;;;;;;29.43;27.43;;;12.70;91.00;;;;;;5030856;28;20893;-71
2021/09/25 02:27:32;;;;;;;27.77;25.90;;;12.80;91.00;;;;;;5026365;28;20468;-71
2021/09/25 02:30:00;;;;;;;28.50;26.60;;;12.70;90.90;;;;;;5020919;28;20559;-71
2021/09/25 02:32:27;;;;;;;27.60;25.80;;;12.70;91.20;;;;;;5027921;28;20461;-71
2021/09/25 02:34:57;;;;;;;28.10;26.20;;;12.60;91.50;;;;;;5030505;28;20465;-71
2021/09/25 02:37:24;;;;;;;28.77;26.83;;;12.70;91.50;;;;;;5028487;28;21040;-71
2021/09/25 02:39:51;;;;;;;27.87;26.07;;;12.70;91.40;;;;;;5029891;28;20484;-71
2021/09/25 02:42:18;;;;;;;28.73;26.63;;;12.80;91.00;;;;;;5028318;28;20503;-72
2021/09/25 02:44:45;;;;;;;27.73;25.73;;;12.70;91.00;;;;;;5030523;28;20455;-73
2021/09/25 02:47:13;;;;;;;27.57;25.53;;;12.80;90.90;;;;;;5027004;28;20935;-73
2021/09/25 02:49:40;;;;;;;28.10;25.97;;;12.70;90.80;;;;;;5024210;28;20496;-72
2021/09/25 02:52:07;;;;;;;27.57;25.77;;;12.70;90.90;;;;;;5025008;28;20539;-73
2021/09/25 02:54:34;;;;;;;27.03;25.17;;;12.70;91.00;;;;;;5017123;28;20472;-72
2021/09/25 02:57:00;;;;;;;26.83;25.23;;;12.70;91.20;;;;;;5030103;28;20668;-72
2021/09/25 02:59:27;;;;;;;27.80;25.90;;;12.70;91.00;;;;;;5028431;28;20486;-72
2021/09/25 03:01:54;;;;;;;27.30;25.50;;;12.60;91.20;;;;;;5028434;28;20460;-73
2021/09/25 03:04:22;;;;;;;27.50;25.77;;;12.60;91.40;;;;;;5016636;28;20463;-73
2021/09/25 03:06:49;;;;;;;28.63;26.83;;;12.60;91.40;;;;;;5029599;28;20572;-73
2021/09/25 03:09:16;;;;;;;27.93;26.10;;;12.60;91.40;;;;;;5026109;28;20471;-72
2021/09/25 03:11:43;;;;;;;28.20;26.30;;;12.60;91.60;;;;;;5029803;28;20453;-72
2021/09/25 03:14:10;;;;;;;27.97;26.07;;;12.50;91.40;;;;;;5016229;28;20571;-72
2021/09/25 03:16:37;;;;;;;26.30;24.60;;;12.50;91.40;;;;;;5029625;28;20459;-73
2021/09/25 03:19:04;;;;;;;26.83;25.13;;;12.50;91.40;;;;;;5027109;28;20547;-72
2021/09/25 03:21:32;;;;;;;27.73;25.73;;;12.50;91.60;;;;;;5022519;28;20464;-72
2021/09/25 03:23:59;;;;;;;27.23;25.43;;;12.50;91.40;;;;;;5027756;28;20997;-72
2021/09/25 03:26:26;;;;;;;27.50;25.77;;;12.40;91.80;;;;;;5029440;28;20476;-72
2021/09/25 03:28:53;;;;;;;27.23;25.30;;;12.40;91.90;;;;;;5027042;28;20460;-72
2021/09/25 03:31:20;;;;;;;28.60;26.70;;;12.40;91.80;;;;;;5018490;28;20479;-72
2021/09/25 03:33:46;;;;;;;27.93;26.03;;;12.40;91.80;;;;;;5028130;28;20567;-73
2021/09/25 03:36:13;;;;;;;26.93;25.13;;;12.40;91.90;;;;;;5029496;28;20515;-72
2021/09/25 03:38:41;;;;;;;27.03;25.13;;;12.40;91.80;;;;;;5026728;28;20466;-72
2021/09/25 03:41:08;;;;;;;27.57;25.90;;;12.40;91.60;;;;;;5028853;28;21027;-73
2021/09/25 03:43:35;;;;;;;26.70;25.00;;;12.40;91.80;;;;;;5016390;28;20452;-72
2021/09/25 03:46:02;;;;;;;27.90;25.90;;;12.40;91.60;;;;;;5025797;28;21064;-73
2021/09/25 03:48:29;;;;;;;28.00;26.07;;;12.40;91.70;;;;;;5026873;28;20978;-72
2021/09/25 03:50:58;;;;;;;28.10;26.10;;;12.40;91.60;;;;;;5027294;28;20563;-72
2021/09/25 03:53:25;;;;;;;27.17;25.27;;;12.40;91.70;;;;;;5027164;28;20464;-73
2021/09/25 03:55:53;;;;;;;28.17;26.37;;;12.40;91.60;;;;;;5029093;28;20456;-73
2021/09/25 03:58:20;;;;;;;29.30;27.33;;;12.40;91.60;;;;;;5027510;28;20468;-72
2021/09/25 04:00:47;;;;;;;27.30;25.40;;;12.30;92.00;;;;;;5028887;28;20468;-72
2021/09/25 04:03:14;;;;;;;28.00;26.10;;;12.20;92.10;;;;;;5019193;28;20559;-72
2021/09/25 04:05:41;;;;;;;29.30;27.20;;;12.20;92.20;;;;;;5024767;28;20885;-73
2021/09/25 04:08:08;;;;;;;28.13;26.33;;;12.20;92.10;;;;;;5027457;28;20465;-73
2021/09/25 04:10:35;;;;;;;28.80;26.80;;;12.30;92.10;;;;;;5028720;28;20917;-73
2021/09/25 04:13:03;;;;;;;29.20;27.20;;;12.30;91.90;;;;;;5022408;28;20462;-72
2021/09/25 04:15:30;;;;;;;29.37;27.20;;;12.30;91.80;;;;;;5025989;28;20460;-72
2021/09/25 04:17:57;;;;;;;29.07;26.97;;;12.30;92.00;;;;;;5027118;28;20477;-73
2021/09/25 04:20:24;;;;;;;28.70;26.60;;;12.20;92.00;;;;;;5027484;28;20476;-73
2021/09/25 04:22:51;;;;;;;28.20;26.30;;;12.30;92.00;;;;;;5026675;28;20853;-72
2021/09/25 04:25:19;;;;;;;28.47;26.57;;;12.20;92.10;;;;;;5029104;28;20546;-72
2021/09/25 04:27:49;;;;;;;28.43;26.53;;;12.20;92.10;;;;;;5023327;28;20556;-72
2021/09/25 04:30:17;;;;;;;28.67;26.87;;;12.20;92.00;;;;;;5023035;28;20527;-73
2021/09/25 04:32:44;;;;;;;29.33;27.43;;;12.20;92.20;;;;;;5022930;28;20462;-72
2021/09/25 04:35:11;;;;;;;29.10;27.20;;;12.20;92.10;;;;;;5021973;28;20456;-72
2021/09/25 04:37:38;;;;;;;28.83;26.93;;;12.20;91.80;;;;;;5026682;28;20885;-72
2021/09/25 04:40:06;;;;;;;28.30;26.37;;;12.20;91.80;;;;;;5028526;28;20475;-72
2021/09/25 04:42:33;;;;;;;29.20;27.00;;;12.20;91.70;;;;;;5026357;28;20460;-72
2021/09/25 04:45:00;;;;;;;29.67;27.43;;;12.10;92.10;;;;;;5025035;28;20962;-72
2021/09/25 04:47:28;;;;;;;27.73;25.80;;;12.00;92.10;;;;;;5026837;28;20473;-72
2021/09/25 04:49:55;;;;;;;28.37;26.10;;;12.00;92.20;;;;;;5017207;28;20518;-72
2021/09/25 04:52:22;;;;;;;29.83;27.20;;;12.00;92.20;;;;;;5024080;28;20552;-72
2021/09/25 04:54:49;;;;;;;28.07;26.23;;;12.00;92.00;;;;;;5026971;28;20561;-72
2021/09/25 04:57:16;;;;;;;30.03;27.80;;;12.00;91.60;;;;;;5027314;28;20452;-72
2021/09/25 04:59:43;;;;;;;29.80;27.70;;;12.00;91.70;;;;;;5016854;28;22463;-72
2021/09/25 05:02:10;;;;;;;28.87;26.77;;;12.00;91.70;;;;;;5027216;28;21158;-72
2021/09/25 05:04:38;;;;;;;29.00;27.20;;;12.00;91.60;;;;;;5027878;28;20866;-72
2021/09/25 05:07:05;;;;;;;28.20;26.27;;;11.90;91.70;;;;;;5020991;28;20568;-73
2021/09/25 05:09:32;;;;;;;28.60;26.60;;;11.90;91.60;;;;;;5012984;28;20486;-72
2021/09/25 05:11:59;;;;;;;28.60;26.80;;;11.90;91.70;;;;;;5031044;28;20462;-72
2021/09/25 05:14:25;;;;;;;28.10;26.30;;;11.80;91.80;;;;;;5030659;28;20470;-72
2021/09/25 05:16:53;;;;;;;26.83;25.07;;;11.90;91.60;;;;;;5032402;28;20467;-72
2021/09/25 05:19:20;;;;;;;28.67;26.87;;;11.80;91.60;;;;;;5029794;28;20898;-73
2021/09/25 05:21:48;;;;;;;29.53;27.33;;;11.80;91.70;;;;;;5031733;28;20488;-72
2021/09/25 05:24:15;;;;;;;29.40;27.40;;;11.80;91.70;;;;;;5030105;28;20861;-73
2021/09/25 05:26:42;;;;;;;29.87;27.80;;;11.90;91.50;;;;;;5031129;28;20474;-72
2021/09/25 05:29:09;;;;;;;28.17;26.27;;;11.90;91.10;;;;;;5030583;28;20978;-72
2021/09/25 05:31:36;;;;;;;28.27;26.40;;;11.90;91.30;;;;;;5029507;28;20463;-73
2021/09/25 05:34:04;;;;;;;29.73;27.73;;;11.90;91.60;;;;;;5030732;28;20547;-72
2021/09/25 05:36:30;;;;;;;28.17;26.27;;;11.90;91.70;;;;;;5019587;28;20457;-72
2021/09/25 05:38:59;;;;;;;28.17;26.00;;;11.90;91.70;;;;;;5022361;28;20460;-73
2021/09/25 05:41:26;;;;;;;29.23;27.23;;;11.90;91.50;;;;;;5027257;28;20985;-72
2021/09/25 05:43:55;;;;;;;29.33;27.40;;;11.90;91.60;;;;;;5030835;28;20484;-72
2021/09/25 05:46:22;;;;;;;29.60;27.50;;;12.00;91.40;;;;;;5030168;28;20567;-73
2021/09/25 05:48:51;;;;;;;29.20;27.13;;;11.90;91.40;;;;;;5031602;28;20485;-72
2021/09/25 05:51:18;;;;;;;30.47;27.93;;;12.00;91.40;;;;;;5019112;28;20534;-73
2021/09/25 05:53:45;;;;;;;29.33;27.33;;;12.00;91.30;;;;;;5031472;28;20970;-72
2021/09/25 05:56:14;;;;;;;29.43;27.43;;;11.90;91.30;;;;;;5029524;28;20821;-72
2021/09/25 05:58:41;;;;;;;29.17;27.07;;;11.90;91.30;;;;;;5030867;28;20453;-72
2021/09/25 06:01:07;;;;;;;29.93;27.93;;;11.90;91.30;;;;;;5019687;28;21005;-72
2021/09/25 06:03:34;;;;;;;29.57;27.67;;;12.00;91.30;;;;;;5023566;28;20563;-72
2021/09/25 06:06:01;;;;;;;27.63;25.73;;;12.10;91.20;;;;;;5018212;28;20470;-72
2021/09/25 06:08:28;;;;;;;27.20;25.50;;;12.10;91.10;;;;;;5026949;28;20575;-73
2021/09/25 06:10:55;;;;;;;28.90;27.10;;;12.30;90.90;;;;;;5021200;28;20487;-72
2021/09/25 06:13:23;;;;;;;27.77;25.77;;;12.30;90.80;;;;;;5021721;28;20489;-73
2021/09/25 06:15:50;;;;;;;29.60;27.60;;;12.50;90.70;;;;;;5025136;28;20206;-73
2021/09/25 06:18:17;;;;;;;27.70;25.80;;;12.60;90.20;;;;;;5030282;28;20566;-73
2021/09/25 06:20:44;;;;;;;27.23;25.53;;;12.60;90.00;;;;;;5028950;28;20479;-73
2021/09/25 06:23:11;;;;;;;27.83;26.00;;;12.70;90.00;;;;;;5030684;28;20518;-73
2021/09/25 06:25:38;;;;;;;27.43;25.77;;;12.80;89.80;;;;;;5025142;28;20458;-72
2021/09/25 06:28:05;;;;;;;27.60;25.80;;;12.90;89.50;;;;;;5026319;28;20473;-72
2021/09/25 06:30:40;;;;;;;28.77;26.97;;;13.00;89.20;;;;;;5028370;28;20986;-73
2021/09/25 06:33:07;;;;;;;29.30;27.30;;;13.10;88.50;;;;;;5018091;28;20461;-71
2021/09/25 06:35:34;;;;;;;27.27;25.43;;;13.10;88.50;;;;;;5025915;28;20544;-73
2021/09/25 06:38:01;;;;;;;27.70;26.00;;;13.20;88.40;;;;;;5031093;28;20460;-74
2021/09/25 06:40:28;;;;;;;28.40;26.40;;;13.30;88.10;;;;;;5026038;28;20477;-73
2021/09/25 06:42:56;;;;;;;27.40;25.63;;;13.40;87.80;;;;;;5030627;28;20451;-73
2021/09/25 06:45:24;;;;;;;28.43;26.63;;;13.40;87.80;;;;;;5017338;28;20480;-75
2021/09/25 06:47:52;;;;;;;27.77;25.87;;;13.50;87.40;;;;;;5028483;28;20487;-74
2021/09/25 06:50:19;;;;;;;28.17;26.17;;;13.60;87.00;;;;;;5027595;28;20482;-74
2021/09/25 06:52:46;;;;;;;27.33;25.50;;;13.70;86.70;;;;;;5030525;28;20457;-74
2021/09/25 06:55:13;;;;;;;27.23;25.53;;;13.80;86.50;;;;;;5026046;28;20461;-74
2021/09/25 06:57:40;;;;;;;29.50;27.60;;;13.90;86.30;;;;;;5030232;28;21044;-74
2021/09/25 07:00:08;;;;;;;30.07;27.77;;;13.90;86.10;;;;;;5027807;28;20473;-74
2021/09/25 07:02:38;;;;;;;29.53;27.53;;;14.00;86.00;;;;;;5029933;28;20456;-74
2021/09/25 07:05:07;;;;;;;28.87;26.97;;;14.10;85.90;;;;;;5028480;28;20460;-73
2021/09/25 07:07:36;;;;;;;28.77;26.97;;;14.10;85.70;;;;;;5025539;28;20484;-73
2021/09/25 07:10:04;;;;;;;27.60;25.60;;;14.20;85.50;;;;;;5020460;28;20486;-73
2021/09/25 07:12:31;;;;;;;30.43;28.43;;;14.30;85.40;;;;;;5029894;28;20454;-74
2021/09/25 07:14:58;;;;;;;28.43;26.47;;;14.40;85.10;;;;;;5026786;28;20464;-72
2021/09/25 07:17:25;;;;;;;29.10;26.80;;;14.50;84.90;;;;;;5030777;28;20466;-73
2021/09/25 07:19:53;;;;;;;28.10;26.30;;;14.60;84.50;;;;;;5028212;28;20494;-75
2021/09/25 07:22:21;;;;;;;29.23;27.37;;;14.70;84.30;;;;;;5029741;28;20466;-76
2021/09/25 07:24:53;;;;;;;29.20;27.20;;;14.90;83.70;;;;;;5027736;28;20494;-75
2021/09/25 07:27:20;;;;;;;28.50;26.60;;;14.90;83.30;;;;;;5029908;28;21071;-75
2021/09/25 07:29:48;;;;;;;27.83;25.93;;;15.00;83.20;;;;;;5022805;28;20497;-74
2021/09/25 07:32:15;;;;;;;30.07;27.80;;;15.10;82.80;;;;;;5027948;28;20819;-73
2021/09/25 07:34:42;;;;;;;30.07;28.07;;;15.10;82.80;;;;;;5025355;28;20462;-73
2021/09/25 07:37:10;;;;;;;28.77;27.07;;;15.10;82.90;;;;;;5036950;28;20798;-74
2021/09/25 07:39:39;;;;;;;27.50;25.80;;;15.20;82.70;;;;;;5027829;28;20476;-75
2021/09/25 07:42:07;;;;;;;27.60;25.90;;;15.40;82.50;;;;;;5026627;28;20452;-74
2021/09/25 07:44:34;;;;;;;28.33;26.40;;;15.50;81.90;;;;;;5024994;28;20969;-74
2021/09/25 07:47:01;;;;;;;28.80;26.67;;;15.60;81.80;;;;;;5025097;28;20481;-74
2021/09/25 07:49:28;;;;;;;29.53;27.70;;;15.70;81.70;;;;;;5026749;28;20479;-74
2021/09/25 07:51:55;;;;;;;27.80;26.00;;;15.80;81.30;;;;;;5026166;28;20495;-73
2021/09/25 07:54:22;;;;;;;27.20;25.43;;;15.80;81.10;;;;;;5021384;28;20457;-73
2021/09/25 07:56:50;;;;;;;28.57;26.70;;;15.90;81.30;;;;;;5027291;28;21047;-73
2021/09/25 07:59:17;;;;;;;30.40;28.40;;;16.00;81.00;;;;;;5025792;28;20551;-74
2021/09/25 08:01:44;;;;;;;28.60;26.80;;;16.10;80.80;;;;;;5023303;28;20546;-74
2021/09/25 08:04:11;;;;;;;29.40;27.50;;;16.20;80.50;;;;;;5024444;28;20459;-74
2021/09/25 08:06:38;;;;;;;27.87;25.87;;;16.40;79.60;;;;;;5028346;28;20458;-75
2021/09/25 08:09:05;;;;;;;28.73;26.73;;;16.60;79.30;;;;;;5025167;28;20491;-74
2021/09/25 08:11:32;;;;;;;29.60;27.53;;;16.70;78.70;;;;;;5033534;28;20554;-76
2021/09/25 08:14:01;;;;;;;28.77;26.63;;;16.90;78.60;;;;;;5021306;28;20456;-75
2021/09/25 08:16:28;;;;;;;29.63;27.63;;;17.00;77.50;;;;;;5028229;28;20567;-74
2021/09/25 08:18:56;;;;;;;31.30;29.00;;;17.10;77.00;;;;;;5028339;28;20454;-74
2021/09/25 08:21:23;;;;;;;30.30;28.20;;;17.10;76.70;;;;;;5025527;28;20581;-74
2021/09/25 08:23:51;;;;;;;28.67;26.87;;;17.30;76.50;;;;;;5027746;28;20455;-74
2021/09/25 08:26:18;;;;;;;30.23;28.13;;;17.40;75.80;;;;;;5027031;28;21007;-74
2021/09/25 08:28:45;;;;;;;30.20;28.20;;;17.40;75.70;;;;;;5026428;28;20475;-74
2021/09/25 08:31:13;;;;;;;31.17;29.07;;;17.50;75.40;;;;;;5030919;28;20587;-74
2021/09/25 08:33:40;;;;;;;32.53;30.00;;;17.70;75.00;;;;;;5027668;28;20459;-74
2021/09/25 08:36:07;;;;;;;30.67;28.60;;;17.80;74.60;;;;;;5024346;28;20456;-74
2021/09/25 08:38:34;;;;;;;30.90;28.80;;;17.90;74.40;;;;;;5028378;28;20491;-74
2021/09/25 08:41:01;;;;;;;32.03;29.77;;;18.00;74.20;;;;;;5027911;28;20562;-74
2021/09/25 08:43:28;;;;;;;32.83;30.70;;;18.00;73.90;;;;;;5026598;28;20464;-77
2021/09/25 08:45:59;;;;;;;31.87;29.80;;;18.10;73.80;;;;;;5018637;28;20460;-74
2021/09/25 08:48:28;;;;;;;31.73;29.60;;;18.10;73.80;;;;;;5015901;28;20482;-74
2021/09/25 08:50:56;;;;;;;31.77;29.77;;;18.20;73.80;;;;;;5018376;28;20487;-74
2021/09/25 08:53:23;;;;;;;31.00;29.00;;;18.40;73.30;;;;;;5009833;28;20465;-74
2021/09/25 08:55:50;;;;;;;30.70;28.50;;;18.50;72.80;;;;;;5015386;28;20477;-74
2021/09/25 08:58:18;;;;;;;30.40;28.40;;;18.60;72.50;;;;;;5021615;28;20500;-74
2021/09/25 09:00:46;;;;;;;32.07;30.17;;;18.70;72.30;;;;;;5023462;28;20472;-74
2021/09/25 09:03:32;;;;;;;31.13;29.13;;;18.90;72.00;;;;;;5031898;28;20471;-74
2021/09/25 09:06:14;;;;;;;32.17;30.17;;;19.00;71.40;;;;;;5021595;28;20475;-74
2021/09/25 09:08:43;;;;;;;31.83;29.53;;;19.10;70.80;;;;;;5029505;28;20467;-74
2021/09/25 09:11:11;;;;;;;31.07;29.17;;;19.20;70.80;;;;;;5023910;28;21023;-75
2021/09/25 09:13:39;;;;;;;31.00;29.17;;;19.30;70.20;;;;;;5028765;28;20895;-74
2021/09/25 09:16:08;;;;;;;31.40;29.07;;;19.20;70.30;;;;;;5017916;28;20494;-74
2021/09/25 09:18:39;;;;;;;31.90;29.67;;;19.30;70.50;;;;;;5028302;28;20455;-74
2021/09/25 09:21:13;;;;;;;30.73;28.87;;;19.40;70.30;;;;;;5025860;28;20484;-74
2021/09/25 09:23:43;;;;;;;30.20;28.30;;;19.50;70.00;;;;;;5023744;28;20456;-74
2021/09/25 09:26:13;;;;;;;29.67;27.60;;;19.50;70.30;;;;;;5015565;28;20518;-75
2021/09/25 09:28:41;;;;;;;30.23;27.90;;;19.50;70.50;;;;;;5017489;28;20484;-75
2021/09/25 09:31:09;;;;;;;31.00;29.10;;;19.60;70.70;;;;;;5025996;28;20565;-74
2021/09/25 09:33:40;;;;;;;30.73;28.50;;;19.70;70.60;;;;;;5029616;28;20558;-75
2021/09/25 09:36:28;;;;;;;31.07;29.00;;;19.80;70.20;;;;;;5018676;28;20464;-74
2021/09/25 09:38:58;;;;;;;31.00;28.90;;;19.90;69.90;;;;;;5023466;28;20452;-75
2021/09/25 09:41:28;;;;;;;30.43;28.43;;;20.00;70.00;;;;;;5026717;28;20483;-75
2021/09/25 09:43:58;;;;;;;31.53;29.07;;;20.10;70.50;;;;;;5013031;28;20464;-75
2021/09/25 09:46:45;;;;;;;31.00;29.03;;;20.30;70.20;;;;;;5025225;28;20473;-74
2021/09/25 09:49:16;;;;;;;32.47;30.07;;;20.50;69.80;;;;;;5023883;28;20483;-75
2021/09/25 09:51:46;;;;;;;30.83;29.03;;;20.60;69.30;;;;;;5014920;28;20461;-75
2021/09/25 09:54:16;;;;;;;31.00;28.73;;;20.80;68.90;;;;;;5011550;28;20861;-75
2021/09/25 09:56:44;;;;;;;29.60;27.80;;;20.90;68.60;;;;;;5014029;28;21159;-74
2021/09/25 09:59:12;;;;;;;30.33;28.47;;;21.00;68.20;;;;;;5016167;28;20487;-75
2021/09/25 10:01:40;;;;;;;31.07;29.30;;;21.10;67.90;;;;;;5018711;28;20452;-75
2021/09/25 10:04:07;;;;;;;29.30;27.60;;;21.30;67.10;;;;;;5016522;28;20492;-74
2021/09/25 10:06:37;;;;;;;30.27;28.43;;;21.30;66.50;;;;;;5014407;28;20550;-75
2021/09/25 10:09:08;;;;;;;30.80;28.93;;;21.40;66.20;;;;;;5015354;28;21009;-75
2021/09/25 10:11:36;;;;;;;29.73;27.93;;;21.50;65.80;;;;;;5012354;28;20460;-75
2021/09/25 10:14:05;;;;;;;29.33;27.60;;;21.60;65.50;;;;;;5018193;28;20458;-75
2021/09/25 10:16:32;;;;;;;29.33;27.63;;;21.70;65.20;;;;;;5012074;28;20452;-75
2021/09/25 10:19:01;;;;;;;29.67;28.00;;;21.80;65.00;;;;;;5026421;28;20452;-73
2021/09/25 10:21:31;;;;;;;28.80;27.07;;;21.80;65.20;;;;;;5012377;28;20461;-73
2021/09/25 10:24:05;;;;;;;29.73;28.00;;;22.10;64.90;;;;;;5021745;28;20459;-73
2021/09/25 10:26:33;;;;;;;29.70;28.00;;;22.20;64.70;;;;;;5029647;28;20458;-73
2021/09/25 10:29:02;;;;;;;29.40;27.70;;;22.20;64.90;;;;;;5017964;28;20476;-73
2021/09/25 10:31:29;;;;;;;29.37;27.67;;;22.30;64.60;;;;;;5028226;28;20482;-74
2021/09/25 10:34:27;;;;;;;28.77;26.87;;;22.30;64.30;;;;;;5026873;28;20462;-75
2021/09/25 10:36:56;;;;;;;28.73;26.93;;;22.40;64.20;;;;;;5022459;28;20491;-74
2021/09/25 10:39:36;;;;;;;29.20;27.60;;;22.50;64.30;;;;;;5019203;28;20472;-75
2021/09/25 10:42:12;;;;;;;31.60;29.70;;;22.50;64.40;;;;;;5014505;28;20547;-75
2021/09/25 10:44:45;;;;;;;29.93;28.17;;;22.60;64.70;;;;;;5017064;28;20455;-76
2021/09/25 10:47:15;;;;;;;29.90;28.20;;;22.60;64.60;;;;;;5019524;28;20456;-75
2021/09/25 10:49:48;;;;;;;29.00;27.20;;;22.70;64.50;;;;;;5017966;28;20527;-74
2021/09/25 10:52:21;;;;;;;29.80;28.00;;;22.80;63.70;;;;;;5012618;28;20459;-75
2021/09/25 10:55:23;;;;;;;29.33;27.73;;;22.80;63.70;;;;;;5014156;28;20463;-75
2021/09/25 10:58:29;;;;;;;28.40;26.60;;;22.90;63.70;;;;;;5016195;28;20471;-75
2021/09/25 11:00:59;;;;;;;29.00;27.20;;;23.10;63.10;;;;;;5013069;28;20495;-74
2021/09/25 11:04:04;;;;;;;30.23;28.43;;;23.10;62.80;;;;;;5028050;28;20464;-74
2021/09/25 11:06:38;;;;;;;29.30;27.60;;;23.10;63.10;;;;;;5028979;28;20451;-74
2021/09/25 11:09:07;;;;;;;30.70;28.80;;;23.10;63.00;;;;;;5024659;28;20476;-74
2021/09/25 11:11:39;;;;;;;28.10;26.60;;;23.20;62.90;;;;;;5019120;28;20824;-74
2021/09/25 11:14:20;;;;;;;29.23;27.53;;;23.30;62.70;;;;;;5012584;28;20559;-74
2021/09/25 11:17:03;;;;;;;29.57;27.77;;;23.40;62.50;;;;;;5024663;28;20548;-74
2021/09/25 11:19:39;;;;;;;29.70;28.00;;;23.50;62.60;;;;;;5020592;28;20854;-75
2021/09/25 11:22:09;;;;;;;30.37;28.30;;;23.50;62.60;;;;;;5016341;28;20470;-74
2021/09/25 11:24:37;;;;;;;29.20;27.60;;;23.60;62.40;;;;;;5017749;28;20872;-74
2021/09/25 11:27:09;;;;;;;27.17;25.67;;;23.60;61.90;;;;;;5028758;28;20535;-74
2021/09/25 11:29:36;;;;;;;30.80;28.90;;;23.70;61.60;;;;;;5018280;28;20490;-74
2021/09/25 11:32:06;;;;;;;29.47;27.67;;;23.80;61.50;;;;;;5029100;28;20817;-75
2021/09/25 11:34:35;;;;;;;29.33;27.43;;;23.90;61.20;;;;;;5020339;28;21044;-75
2021/09/25 11:37:05;;;;;;;29.73;28.03;;;24.00;60.60;;;;;;5024634;28;20462;-75
2021/09/25 11:39:41;;;;;;;29.90;28.00;;;24.00;60.40;;;;;;5011432;28;21016;-75
2021/09/25 11:42:20;;;;;;;29.40;27.70;;;24.10;60.70;;;;;;5011989;28;20482;-75
2021/09/25 11:44:50;;;;;;;29.43;27.63;;;24.20;60.40;;;;;;5011733;28;20462;-74
2021/09/25 11:47:31;;;;;;;29.23;27.47;;;24.20;60.50;;;;;;5011424;28;20586;-76
2021/09/25 11:50:02;;;;;;;29.30;27.60;;;24.30;60.10;;;;;;5025610;28;20931;-75
2021/09/25 11:52:29;;;;;;;28.50;26.90;;;24.40;60.00;;;;;;5028939;28;20878;-79
2021/09/25 11:54:56;;;;;;;29.53;27.83;;;24.40;59.70;;;;;;5023438;28;20837;-77
2021/09/25 11:57:26;;;;;;;30.20;28.30;;;24.40;59.90;;;;;;5027653;28;20490;-77
2021/09/25 11:59:53;;;;;;;28.80;27.03;;;24.40;60.40;;;;;;5022390;28;20882;-78
2021/09/25 12:02:40;;;;;;;29.27;27.60;;;24.40;59.90;;;;;;5025460;28;20486;-77
2021/09/25 12:05:10;;;;;;;29.40;27.70;;;24.40;59.80;;;;;;5028280;28;20462;-80
2021/09/25 16:21:10;;;;;;;30.83;28.93;;;24.10;58.10;;;;;;5104675;27;21088;-76
2021/09/25 16:23:37;;;;;;;30.20;28.30;;;24.30;57.90;;;;;;5096470;28;20851;-75
2021/09/25 16:26:04;;;;;;;29.17;27.47;;;24.50;57.80;;;;;;5101414;28;20462;-74
2021/09/25 16:28:31;;;;;;;31.37;29.37;;;24.70;57.50;;;;;;5100620;28;20456;-75
2021/09/25 16:30:59;;;;;;;33.50;31.43;;;24.70;57.60;;;;;;5103459;28;20555;-75
2021/09/25 16:33:26;;;;;;;30.33;28.23;;;24.90;57.20;;;;;;5103967;28;20856;-75
2021/09/25 16:35:53;;;;;;;32.97;30.87;;;25.00;57.90;;;;;;5103813;28;20509;-75
2021/09/25 16:38:21;;;;;;;33.80;31.70;;;25.10;57.90;;;;;;5110424;28;20451;-76
2021/09/25 16:40:48;;;;;;;32.17;29.90;;;25.20;57.60;;;;;;5102190;28;20633;-75
2021/09/25 16:43:15;;;;;;;30.90;29.00;;;25.20;56.90;;;;;;5101248;28;20471;-75
2021/09/25 16:45:46;;;;;;;33.13;30.93;;;25.20;56.50;;;;;;5094996;27;20946;-74
2021/09/25 16:48:13;;;;;;;31.60;29.60;;;25.20;56.80;;;;;;5099852;28;20483;-75